Burgtor — V2OR7 — position and weather

sailwx.info

Track history (hours):
 
Tides and Currents Weather Stations Pressure Air Temp Water Temp Dewpoint Dewpoint Depression Visibility Wind Speed Wind Dir Waves Ship Positions

Burgtor

Last reported at 2014-Nov-27 10:31 UTC. Time now 2014-Nov-27 10:39 UTC.
Position N 51°50' W 008°20'.

Length 87 m; draft 3.3 m.

Type: Cargo ship. MMSI: 304665000.

Date/timePositionNaut miles runAvg speedWind from/ knotsBaromVisibWave heightAir tempDewpointWater temp
2014-Nov-27 10:31N 51°50' W 008°20'0 0.0
2014-Nov-27 09:31N 51°50' W 008°20'0 0.0
2014-Nov-27 08:31N 51°50' W 008°20'0 0.0
2014-Nov-27 07:31N 51°50' W 008°20'0 0.0
2014-Nov-27 06:31N 51°50' W 008°20'0 0.0
2014-Nov-27 05:31N 51°50' W 008°20'0 0.0
2014-Nov-27 04:34N 51°50' W 008°20'0 0.0
2014-Nov-27 03:33N 51°50' W 008°20'0 0.0
2014-Nov-27 02:33N 51°50' W 008°20'0 0.0
2014-Nov-27 01:33N 51°50' W 008°20'0 0.0
2014-Nov-27 00:33N 51°50' W 008°20'0 0.0
2014-Nov-26 23:33N 51°50' W 008°20'0 0.0
2014-Nov-26 22:33N 51°50' W 008°20'0 0.0
2014-Nov-26 21:33N 51°50' W 008°20'0 0.3
2014-Nov-26 20:33N 51°50' W 008°19'2 2.0
2014-Nov-26 19:32N 51°51' W 008°16'0 0.0
2014-Nov-26 18:32N 51°51' W 008°16'0 0.0
2014-Nov-26 17:32N 51°51' W 008°16'0 0.0
2014-Nov-26 16:32N 51°51' W 008°16'0 0.0
2014-Nov-26 15:31N 51°51' W 008°16'0 0.1
2014-Nov-26 14:31N 51°50' W 008°16'0 0.1
2014-Nov-26 13:31N 51°50' W 008°16'0 0.0
2014-Nov-26 12:31N 51°50' W 008°16'0 0.0
2014-Nov-26 11:31N 51°50' W 008°16'0 0.0
2014-Nov-26 10:31N 51°50' W 008°16'0 0.0
2014-Nov-26 09:31N 51°50' W 008°16'0 0.2
2014-Nov-26 08:33N 51°50' W 008°16'7 6.9
2014-Nov-26 07:33N 51°45' W 008°08'9 9.3
2014-Nov-26 06:33N 51°48' W 007°53'10 9.7
2014-Nov-26 05:33N 51°51' W 007°38'1010.0
2014-Nov-26 04:33N 51°54' W 007°23'1010.2
2014-Nov-26 03:33N 51°57' W 007°07'1110.5
2014-Nov-26 02:33N 51°60' W 006°51'1110.5
2014-Nov-26 01:33N 52°03' W 006°34'1010.4
2014-Nov-26 00:33N 52°06' W 006°18'9 8.9
2014-Nov-25 23:33N 52°12' W 006°07'8 8.3
2014-Nov-25 22:33N 52°20' W 006°03'8 7.7
2014-Nov-25 21:33N 52°27' W 005°59'77 2.3
2014-Nov-24 11:32N 53°43' W 006°12'86 7.8
2014-Nov-24 00:33N 52°20' W 005°41'161 5.7
2014-Nov-22 20:29N 50°09' W 003°11'7 7.4
2014-Nov-22 19:33N 50°10' W 003°01'119 9.0
2014-Nov-22 06:17N 50°33' E 000°03'9 8.6
2014-Nov-22 05:15N 50°36' E 000°16'7 9.7
2014-Nov-22 04:33N 50°37' E 000°27'10 9.9
2014-Nov-22 03:33N 50°42' E 000°40'10 9.5
2014-Nov-22 02:33N 50°47' E 000°53'17 8.1
2014-Nov-22 00:25N 50°58' E 001°15'6 6.4
2014-Nov-21 23:33N 51°01' E 001°22'6 6.3
2014-Nov-21 22:33N 51°05' E 001°30'7 6.6
2014-Nov-21 21:33N 51°06' E 001°40'9 8.5
2014-Nov-21 20:30N 51°03' E 001°53'10 9.9
2014-Nov-21 19:31N 51°03' E 002°09'7 7.2
2014-Nov-21 18:30N 51°03' E 002°20'3 2.1
2014-Nov-21 17:16N 51°03' E 002°17'0 0.1
2014-Nov-21 16:31N 51°03' E 002°17'0 0.0
2014-Nov-21 15:25N 51°03' E 002°17'0 0.0
2014-Nov-21 14:13N 51°03' E 002°17'0 0.0
2014-Nov-21 12:31N 51°03' E 002°17'0 0.0
2014-Nov-21 11:04N 51°03' E 002°17'0 0.0
2014-Nov-21 09:13N 51°03' E 002°17'0 0.0
2014-Nov-21 08:16N 51°03' E 002°17'0 0.0
2014-Nov-21 07:31N 51°03' E 002°17'0 0.0
2014-Nov-21 06:31N 51°03' E 002°17'0 0.0
2014-Nov-21 03:33N 51°03' E 002°17'0 0.0
2014-Nov-21 01:25N 51°03' E 002°17'0 0.0
2014-Nov-21 00:33N 51°03' E 002°17'0 0.0
2014-Nov-20 21:33N 51°03' E 002°17'0 0.0
2014-Nov-20 20:18N 51°03' E 002°17'0 0.2
2014-Nov-20 19:33N 51°03' E 002°17'8 3.9
2014-Nov-20 17:26N 51°05' E 002°29'5 4.7
2014-Nov-20 16:28N 51°09' E 002°34'0 0.0
2014-Nov-20 15:16N 51°09' E 002°34'0 0.0
2014-Nov-20 14:13N 51°09' E 002°34'0 0.0
2014-Nov-20 09:24N 51°09' E 002°34'0 0.1
2014-Nov-20 08:03N 51°09' E 002°34'0 0.0
2014-Nov-20 07:24N 51°09' E 002°34'0 0.0
2014-Nov-20 06:27N 51°09' E 002°34'0 0.0
2014-Nov-20 05:21N 51°09' E 002°34'0 0.0
2014-Nov-20 04:24N 51°09' E 002°34'0 0.0
2014-Nov-20 03:12N 51°09' E 002°34'0 0.0
2014-Nov-20 02:30N 51°09' E 002°34'0 0.0
2014-Nov-20 01:12N 51°09' E 002°34'0 0.1
2014-Nov-20 00:24N 51°09' E 002°34'0 0.0
2014-Nov-19 23:24N 51°09' E 002°34'0 0.0
2014-Nov-19 22:30N 51°09' E 002°34'0 0.0
2014-Nov-19 21:21N 51°09' E 002°34'0 0.0
2014-Nov-19 20:33N 51°09' E 002°34'0 0.1
2014-Nov-19 19:27N 51°09' E 002°34'0 0.0
2014-Nov-19 18:33N 51°09' E 002°34'0 0.0
2014-Nov-19 17:18N 51°09' E 002°34'0 0.0
2014-Nov-19 15:24N 51°09' E 002°34'0 0.0
2014-Nov-19 14:03N 51°09' E 002°34'0 0.1
2014-Nov-19 13:15N 51°09' E 002°34'0 0.1
2014-Nov-19 12:15N 51°09' E 002°34'0 0.0
2014-Nov-19 11:33N 51°09' E 002°34'0 0.0
2014-Nov-19 10:15N 51°09' E 002°34'0 0.0
2014-Nov-19 09:33N 51°09' E 002°34'0 0.0
2014-Nov-19 08:30N 51°09' E 002°34'0 0.1
2014-Nov-19 07:30N 51°09' E 002°34'0 0.0
2014-Nov-19 06:08N 51°09' E 002°34'0 0.0
2014-Nov-19 05:32N 51°09' E 002°34'0 0.0
2014-Nov-19 04:20N 51°09' E 002°34'0 0.0
2014-Nov-19 03:23N 51°09' E 002°34'0 0.0
2014-Nov-19 02:29N 51°09' E 002°34'0 0.0
2014-Nov-19 01:17N 51°09' E 002°34'0 0.0
2014-Nov-19 00:29N 51°09' E 002°34'0 0.0
2014-Nov-18 22:26N 51°09' E 002°34'0 0.0
2014-Nov-18 21:29N 51°09' E 002°34'0 0.0
2014-Nov-18 20:26N 51°09' E 002°34'0 0.1
2014-Nov-18 19:32N 51°09' E 002°34'0 0.0
2014-Nov-18 18:32N 51°09' E 002°34'0 0.0
2014-Nov-18 17:05N 51°09' E 002°34'0 0.0
2014-Nov-18 16:33N 51°09' E 002°34'0 0.0
2014-Nov-18 15:29N 51°09' E 002°34'0 0.0
2014-Nov-18 14:29N 51°09' E 002°34'0 0.0
2014-Nov-18 13:14N 51°09' E 002°34'0 0.0
2014-Nov-18 12:26N 51°09' E 002°34'0 0.1
2014-Nov-18 11:32N 51°09' E 002°34'0 0.0
2014-Nov-18 10:32N 51°09' E 002°34'0 0.0
2014-Nov-18 09:11N 51°09' E 002°34'0 0.0
2014-Nov-18 08:26N 51°09' E 002°34'0 0.1
2014-Nov-18 07:29N 51°09' E 002°34'0 0.1
2014-Nov-18 06:32N 51°09' E 002°34'0 0.0
2014-Nov-18 05:29N 51°09' E 002°34'0 0.0
2014-Nov-18 04:26N 51°09' E 002°34'0 0.0
2014-Nov-18 02:32N 51°09' E 002°34'6 6.6
2014-Nov-18 01:34N 51°14' E 002°39'9 9.3
2014-Nov-18 00:33N 51°22' E 002°47'20 9.8
2014-Nov-17 22:30N 51°25' E 003°19'9 9.6
2014-Nov-17 21:34N 51°26' E 003°34'8 8.1
2014-Nov-17 20:34N 51°22' E 003°45'4 3.5
2014-Nov-17 19:34N 51°19' E 003°49'7 6.9
2014-Nov-17 18:33N 51°13' E 003°48'8 7.5
2014-Nov-17 17:33N 51°05' E 003°45'0 0.0
2014-Nov-17 16:32N 51°05' E 003°45'0 0.0
2014-Nov-17 15:32N 51°05' E 003°45'0 0.0
2014-Nov-17 14:29N 51°05' E 003°45'0 0.0
2014-Nov-17 13:32N 51°05' E 003°45'0 0.0
2014-Nov-17 12:29N 51°05' E 003°45'0 0.0
2014-Nov-17 11:32N 51°05' E 003°45'0 0.0
2014-Nov-17 10:32N 51°05' E 003°45'  
Track history (hours):
 
Tides and Currents Weather Stations Pressure Air Temp Water Temp Dewpoint Dewpoint Depression Visibility Wind Speed Wind Dir Waves Ship Positions

Burgtor

Last reported at 2014-Nov-27 10:31 UTC. Time now 2014-Nov-27 10:39 UTC.
Position N 51°50' W 008°20'.

Length 87 m; draft 3.3 m.

Type: Cargo ship. MMSI: 304665000.

Date/timePositionNaut miles runAvg speedWind from/ knotsBaromVisibWave heightAir tempDewpointWater temp
2014-Nov-27 10:31N 51°50' W 008°20'0 0.0
2014-Nov-27 09:31N 51°50' W 008°20'0 0.0
2014-Nov-27 08:31N 51°50' W 008°20'0 0.0
2014-Nov-27 07:31N 51°50' W 008°20'0 0.0
2014-Nov-27 06:31N 51°50' W 008°20'0 0.0
2014-Nov-27 05:31N 51°50' W 008°20'0 0.0
2014-Nov-27 04:34N 51°50' W 008°20'0 0.0
2014-Nov-27 03:33N 51°50' W 008°20'0 0.0
2014-Nov-27 02:33N 51°50' W 008°20'0 0.0
2014-Nov-27 01:33N 51°50' W 008°20'0 0.0
2014-Nov-27 00:33N 51°50' W 008°20'0 0.0
2014-Nov-26 23:33N 51°50' W 008°20'0 0.0
2014-Nov-26 22:33N 51°50' W 008°20'0 0.0
2014-Nov-26 21:33N 51°50' W 008°20'0 0.3
2014-Nov-26 20:33N 51°50' W 008°19'2 2.0
2014-Nov-26 19:32N 51°51' W 008°16'0 0.0
2014-Nov-26 18:32N 51°51' W 008°16'0 0.0
2014-Nov-26 17:32N 51°51' W 008°16'0 0.0
2014-Nov-26 16:32N 51°51' W 008°16'0 0.0
2014-Nov-26 15:31N 51°51' W 008°16'0 0.1
2014-Nov-26 14:31N 51°50' W 008°16'0 0.1
2014-Nov-26 13:31N 51°50' W 008°16'0 0.0
2014-Nov-26 12:31N 51°50' W 008°16'0 0.0
2014-Nov-26 11:31N 51°50' W 008°16'0 0.0
2014-Nov-26 10:31N 51°50' W 008°16'0 0.0
2014-Nov-26 09:31N 51°50' W 008°16'0 0.2
2014-Nov-26 08:33N 51°50' W 008°16'7 6.9
2014-Nov-26 07:33N 51°45' W 008°08'9 9.3
2014-Nov-26 06:33N 51°48' W 007°53'10 9.7
2014-Nov-26 05:33N 51°51' W 007°38'1010.0
2014-Nov-26 04:33N 51°54' W 007°23'1010.2
2014-Nov-26 03:33N 51°57' W 007°07'1110.5
2014-Nov-26 02:33N 51°60' W 006°51'1110.5
2014-Nov-26 01:33N 52°03' W 006°34'1010.4
2014-Nov-26 00:33N 52°06' W 006°18'9 8.9
2014-Nov-25 23:33N 52°12' W 006°07'8 8.3
2014-Nov-25 22:33N 52°20' W 006°03'8 7.7
2014-Nov-25 21:33N 52°27' W 005°59'77 2.3
2014-Nov-24 11:32N 53°43' W 006°12'86 7.8
2014-Nov-24 00:33N 52°20' W 005°41'161 5.7
2014-Nov-22 20:29N 50°09' W 003°11'7 7.4
2014-Nov-22 19:33N 50°10' W 003°01'119 9.0
2014-Nov-22 06:17N 50°33' E 000°03'9 8.6
2014-Nov-22 05:15N 50°36' E 000°16'7 9.7
2014-Nov-22 04:33N 50°37' E 000°27'10 9.9
2014-Nov-22 03:33N 50°42' E 000°40'10 9.5
2014-Nov-22 02:33N 50°47' E 000°53'17 8.1
2014-Nov-22 00:25N 50°58' E 001°15'6 6.4
2014-Nov-21 23:33N 51°01' E 001°22'6 6.3
2014-Nov-21 22:33N 51°05' E 001°30'7 6.6
2014-Nov-21 21:33N 51°06' E 001°40'9 8.5
2014-Nov-21 20:30N 51°03' E 001°53'10 9.9
2014-Nov-21 19:31N 51°03' E 002°09'7 7.2
2014-Nov-21 18:30N 51°03' E 002°20'3 2.1
2014-Nov-21 17:16N 51°03' E 002°17'0 0.1
2014-Nov-21 16:31N 51°03' E 002°17'0 0.0
2014-Nov-21 15:25N 51°03' E 002°17'0 0.0
2014-Nov-21 14:13N 51°03' E 002°17'0 0.0
2014-Nov-21 12:31N 51°03' E 002°17'0 0.0
2014-Nov-21 11:04N 51°03' E 002°17'0 0.0
2014-Nov-21 09:13N 51°03' E 002°17'0 0.0
2014-Nov-21 08:16N 51°03' E 002°17'0 0.0
2014-Nov-21 07:31N 51°03' E 002°17'0 0.0
2014-Nov-21 06:31N 51°03' E 002°17'0 0.0
2014-Nov-21 03:33N 51°03' E 002°17'0 0.0
2014-Nov-21 01:25N 51°03' E 002°17'0 0.0
2014-Nov-21 00:33N 51°03' E 002°17'0 0.0
2014-Nov-20 21:33N 51°03' E 002°17'0 0.0
2014-Nov-20 20:18N 51°03' E 002°17'0 0.2
2014-Nov-20 19:33N 51°03' E 002°17'8 3.9
2014-Nov-20 17:26N 51°05' E 002°29'5 4.7
2014-Nov-20 16:28N 51°09' E 002°34'0 0.0
2014-Nov-20 15:16N 51°09' E 002°34'0 0.0
2014-Nov-20 14:13N 51°09' E 002°34'0 0.0
2014-Nov-20 09:24N 51°09' E 002°34'0 0.1
2014-Nov-20 08:03N 51°09' E 002°34'0 0.0
2014-Nov-20 07:24N 51°09' E 002°34'0 0.0
2014-Nov-20 06:27N 51°09' E 002°34'0 0.0
2014-Nov-20 05:21N 51°09' E 002°34'0 0.0
2014-Nov-20 04:24N 51°09' E 002°34'0 0.0
2014-Nov-20 03:12N 51°09' E 002°34'0 0.0
2014-Nov-20 02:30N 51°09' E 002°34'0 0.0
2014-Nov-20 01:12N 51°09' E 002°34'0 0.1
2014-Nov-20 00:24N 51°09' E 002°34'0 0.0
2014-Nov-19 23:24N 51°09' E 002°34'0 0.0
2014-Nov-19 22:30N 51°09' E 002°34'0 0.0
2014-Nov-19 21:21N 51°09' E 002°34'0 0.0
2014-Nov-19 20:33N 51°09' E 002°34'0 0.1
2014-Nov-19 19:27N 51°09' E 002°34'0 0.0
2014-Nov-19 18:33N 51°09' E 002°34'0 0.0
2014-Nov-19 17:18N 51°09' E 002°34'0 0.0
2014-Nov-19 15:24N 51°09' E 002°34'0 0.0
2014-Nov-19 14:03N 51°09' E 002°34'0 0.1
2014-Nov-19 13:15N 51°09' E 002°34'0 0.1
2014-Nov-19 12:15N 51°09' E 002°34'0 0.0
2014-Nov-19 11:33N 51°09' E 002°34'0 0.0
2014-Nov-19 10:15N 51°09' E 002°34'0 0.0
2014-Nov-19 09:33N 51°09' E 002°34'0 0.0
2014-Nov-19 08:30N 51°09' E 002°34'0 0.1
2014-Nov-19 07:30N 51°09' E 002°34'0 0.0
2014-Nov-19 06:08N 51°09' E 002°34'0 0.0
2014-Nov-19 05:32N 51°09' E 002°34'0 0.0
2014-Nov-19 04:20N 51°09' E 002°34'0 0.0
2014-Nov-19 03:23N 51°09' E 002°34'0 0.0
2014-Nov-19 02:29N 51°09' E 002°34'0 0.0
2014-Nov-19 01:17N 51°09' E 002°34'0 0.0
2014-Nov-19 00:29N 51°09' E 002°34'0 0.0
2014-Nov-18 22:26N 51°09' E 002°34'0 0.0
2014-Nov-18 21:29N 51°09' E 002°34'0 0.0
2014-Nov-18 20:26N 51°09' E 002°34'0 0.1
2014-Nov-18 19:32N 51°09' E 002°34'0 0.0
2014-Nov-18 18:32N 51°09' E 002°34'0 0.0
2014-Nov-18 17:05N 51°09' E 002°34'0 0.0
2014-Nov-18 16:33N 51°09' E 002°34'0 0.0
2014-Nov-18 15:29N 51°09' E 002°34'0 0.0
2014-Nov-18 14:29N 51°09' E 002°34'0 0.0
2014-Nov-18 13:14N 51°09' E 002°34'0 0.0
2014-Nov-18 12:26N 51°09' E 002°34'0 0.1
2014-Nov-18 11:32N 51°09' E 002°34'0 0.0
2014-Nov-18 10:32N 51°09' E 002°34'0 0.0
2014-Nov-18 09:11N 51°09' E 002°34'0 0.0
2014-Nov-18 08:26N 51°09' E 002°34'0 0.1
2014-Nov-18 07:29N 51°09' E 002°34'0 0.1
2014-Nov-18 06:32N 51°09' E 002°34'0 0.0
2014-Nov-18 05:29N 51°09' E 002°34'0 0.0
2014-Nov-18 04:26N 51°09' E 002°34'0 0.0
2014-Nov-18 02:32N 51°09' E 002°34'6 6.6
2014-Nov-18 01:34N 51°14' E 002°39'9 9.3
2014-Nov-18 00:33N 51°22' E 002°47'20 9.8
2014-Nov-17 22:30N 51°25' E 003°19'9 9.6
2014-Nov-17 21:34N 51°26' E 003°34'8 8.1
2014-Nov-17 20:34N 51°22' E 003°45'4 3.5
2014-Nov-17 19:34N 51°19' E 003°49'7 6.9
2014-Nov-17 18:33N 51°13' E 003°48'8 7.5
2014-Nov-17 17:33N 51°05' E 003°45'0 0.0
2014-Nov-17 16:32N 51°05' E 003°45'0 0.0
2014-Nov-17 15:32N 51°05' E 003°45'0 0.0
2014-Nov-17 14:29N 51°05' E 003°45'0 0.0
2014-Nov-17 13:32N 51°05' E 003°45'0 0.0
2014-Nov-17 12:29N 51°05' E 003°45'0 0.0
2014-Nov-17 11:32N 51°05' E 003°45'0 0.0
2014-Nov-17 10:32N 51°05' E 003°45'  

Dump ship's entire track history